ADDS METAR Data INFO
IDs: Format: Raw Decoded Include TAF

Data at: 0127 UTC 23 Nov 2017

METAR for:PADU (Dutch Harbor/Madsen, AK, US)
Text:PADU 230056Z 29024G33KT 10SM SCT026 BKN037 07/00 A2971 RMK AO2 PK WND 27040/0004 SLP067 OBS PK WND 28049/0050 BLK WTR NE-E AND W-NW CS T00720000
Temperature: 7.2°C ( 45°F)
Dewpoint: 0.0°C ( 32°F) [RH = 60%]
Pressure (altimeter):29.71 inches Hg (1006.2 mb) [Sea level pressure: 1006.7 mb]
Winds:from the WNW (290 degrees) at 28 MPH (24 knots; 12.3 m/s) gusting to 38 MPH (33 knots; 17.0 m/s)
Visibility:10 or more sm (16+ km)
Ceiling:3700 feet AGL
Clouds: scattered clouds at 2600 feet AGL, broken clouds at 3700 feet AGL
Text:PADU 230051Z 28022G33KT 10SM SCT026 BKN037 07/01 A2971 RMK AO2 PK WND 27040/0004 OBS PK WND 28049/0050 BLK WTR NE-E AND W-NW CS
Temperature: 7.0°C ( 45°F)
Dewpoint: 1.0°C ( 34°F) [RH = 66%]
Pressure (altimeter):29.71 inches Hg (1006.2 mb)
Winds:from the W (280 degrees) at 25 MPH (22 knots; 11.3 m/s) gusting to 38 MPH (33 knots; 17.0 m/s)
Visibility:10 or more sm (16+ km)
Ceiling:3700 feet AGL
Clouds: scattered clouds at 2600 feet AGL, broken clouds at 3700 feet AGL
Text:PADU 230004Z 27026G38KT 10SM SCT026 BKN037 07/01 A2969 RMK 0BS PK WND 28044/2324 BLK WTR NE-E AND W-NW CS
Temperature: 7.0°C ( 45°F)
Dewpoint: 1.0°C ( 34°F) [RH = 66%]
Pressure (altimeter):29.69 inches Hg (1005.5 mb)
Winds:from the W (270 degrees) at 30 MPH (26 knots; 13.4 m/s) gusting to 44 MPH (38 knots; 19.5 m/s)
Visibility:10 or more sm (16+ km)
Ceiling:3700 feet AGL
Clouds: scattered clouds at 2600 feet AGL, broken clouds at 3700 feet AGL
Text:PADU 222303Z 28029G34KT 10SM BKN045 BKN055 08/02 A2968 RMK AO2 PK WND 27034/2303 OBS PK WND 27048/2219 BLK WTR NE-E AND W-NW CS
Temperature: 8.0°C ( 46°F)
Dewpoint: 2.0°C ( 36°F) [RH = 66%]
Pressure (altimeter):29.68 inches Hg (1005.2 mb)
Winds:from the W (280 degrees) at 33 MPH (29 knots; 14.9 m/s) gusting to 39 MPH (34 knots; 17.5 m/s)
Visibility:10 or more sm (16+ km)
Ceiling:4500 feet AGL
Clouds: broken clouds at 4500 feet AGL, broken clouds at 5500 feet AGL
Text:PADU 222222Z 29029G36KT 10SM SCT023 BKN038 BKN047 09/03 A2965 RMK AO2 PK WND 28037/2207 OBS PK WND 27048/2219 BLK WTR NE-E AND W-NW WILLIWAWS W-NW CS
Temperature: 9.0°C ( 48°F)
Dewpoint: 3.0°C ( 37°F) [RH = 66%]
Pressure (altimeter):29.65 inches Hg (1004.1 mb)
Winds:from the WNW (290 degrees) at 33 MPH (29 knots; 14.9 m/s) gusting to 41 MPH (36 knots; 18.5 m/s)
Visibility:10 or more sm (16+ km)
Ceiling:3800 feet AGL
Clouds: scattered clouds at 2300 feet AGL, broken clouds at 3800 feet AGL, broken clouds at 4700 feet AGL
Text:PADU 222152Z 29025G40KT 10SM SCT016 BKN026 OVC040 09/04 A2963 RMK AO2 PK WND 29040/2152 RAE00 BLK WTR NE-E AND W-NW WILLIWAWS W-NW CS P0000
Temperature: 9.0°C ( 48°F)
Dewpoint: 4.0°C ( 39°F) [RH = 71%]
Pressure (altimeter):29.63 inches Hg (1003.5 mb)
Winds:from the WNW (290 degrees) at 29 MPH (25 knots; 12.9 m/s) gusting to 46 MPH (40 knots; 20.6 m/s)
Visibility:10 or more sm (16+ km)
Ceiling:2600 feet AGL
Clouds: scattered clouds at 1600 feet AGL, broken clouds at 2600 feet AGL, overcast cloud deck at 4000 feet AGL
Text:PADU 222056Z 23011G25KT 10SM -RA SCT018 BKN028 OVC047 11/06 A2963 RMK AO2 PK WND 22034/2009 RAE12B37 SLP037 BLK WTR NE-E CS P0000 60005 T01060061 56020
Temperature: 10.6°C ( 51°F)
Dewpoint: 6.1°C ( 43°F) [RH = 74%]
Pressure (altimeter):29.63 inches Hg (1003.5 mb) [Sea level pressure: 1003.7 mb]
Winds:from the SW (230 degrees) at 13 MPH (11 knots; 5.7 m/s) gusting to 29 MPH (25 knots; 12.9 m/s)
Visibility:10 or more sm (16+ km)
Ceiling:2800 feet AGL
Clouds: scattered clouds at 1800 feet AGL, broken clouds at 2800 feet AGL, overcast cloud deck at 4700 feet AGL
Weather:-RA (light rain)
Text:PADU 222052Z 20017G25KT 10SM -RA SCT018 BKN028 OVC047 11/06 A2962 RMK AO2 PK WND 22034/2009 RAE12B37 BLK WTR NE-E CS P0000
Temperature: 11.0°C ( 52°F)
Dewpoint: 6.0°C ( 43°F) [RH = 71%]
Pressure (altimeter):29.62 inches Hg (1003.1 mb)
Winds:from the SSW (200 degrees) at 20 MPH (17 knots; 8.7 m/s) gusting to 29 MPH (25 knots; 12.9 m/s)
Visibility:10 or more sm (16+ km)
Ceiling:2800 feet AGL
Clouds: scattered clouds at 1800 feet AGL, broken clouds at 2800 feet AGL, overcast cloud deck at 4700 feet AGL
Weather:-RA (light rain)
Text:PADU 222042Z 21016G21KT 10SM -RA SCT018 BKN028 OVC047 11/06 A2962 RMK AO2 PK WND 22034/2009 RAE12B37 BLK WTR NE-E CS P0000
Temperature: 11.0°C ( 52°F)
Dewpoint: 6.0°C ( 43°F) [RH = 71%]
Pressure (altimeter):29.62 inches Hg (1003.1 mb)
Winds:from the SSW (210 degrees) at 18 MPH (16 knots; 8.2 m/s) gusting to 24 MPH (21 knots; 10.8 m/s)
Visibility:10 or more sm (16+ km)
Ceiling:2800 feet AGL
Clouds: scattered clouds at 1800 feet AGL, broken clouds at 2800 feet AGL, overcast cloud deck at 4700 feet AGL
Weather:-RA (light rain)
Text:PADU 222022Z 24023G30KT 10SM SCT050 BKN070 OVC090 11/07 A2963 RMK AO2 PK WND 22034/2009 RAE12 CS P0000
Temperature: 11.0°C ( 52°F)
Dewpoint: 7.0°C ( 45°F) [RH = 76%]
Pressure (altimeter):29.63 inches Hg (1003.5 mb)
Winds:from the WSW (240 degrees) at 26 MPH (23 knots; 11.8 m/s) gusting to 34 MPH (30 knots; 15.4 m/s)
Visibility:10 or more sm (16+ km)
Ceiling:7000 feet AGL
Clouds: scattered clouds at 5000 feet AGL, broken clouds at 7000 feet AGL, overcast cloud deck at 9000 feet AGL
Text:PADU 222010Z 22023G34KT 10SM -RA SCT050 BKN070 OVC090 11/07 A2962 RMK AO2 PK WND 22034/2009 CS P0000
Temperature: 11.0°C ( 52°F)
Dewpoint: 7.0°C ( 45°F) [RH = 76%]
Pressure (altimeter):29.62 inches Hg (1003.1 mb)
Winds:from the SW (220 degrees) at 26 MPH (23 knots; 11.8 m/s) gusting to 39 MPH (34 knots; 17.5 m/s)
Visibility:10 or more sm (16+ km)
Ceiling:7000 feet AGL
Clouds: scattered clouds at 5000 feet AGL, broken clouds at 7000 feet AGL, overcast cloud deck at 9000 feet AGL
Weather:-RA (light rain)
Text:PADU 221956Z 25016G28KT 10SM -RA FEW021 SCT033 OVC050 11/07 A2963 RMK AO2 PK WND 23028/1954 SLP037 CS P0001 T01060067
Temperature: 10.6°C ( 51°F)
Dewpoint: 6.7°C ( 44°F) [RH = 77%]
Pressure (altimeter):29.63 inches Hg (1003.5 mb) [Sea level pressure: 1003.7 mb]
Winds:from the WSW (250 degrees) at 18 MPH (16 knots; 8.2 m/s) gusting to 32 MPH (28 knots; 14.4 m/s)
Visibility:10 or more sm (16+ km)
Ceiling:5000 feet AGL
Clouds: few clouds at 2100 feet AGL, scattered clouds at 3300 feet AGL, overcast cloud deck at 5000 feet AGL
Weather:-RA (light rain)
Text:PADU 221949Z 21015G23KT 10SM -RA FEW021 BKN041 OVC055 09/07 A2964 RMK AO2 CS P0001
Temperature: 9.0°C ( 48°F)
Dewpoint: 7.0°C ( 45°F) [RH = 87%]
Pressure (altimeter):29.64 inches Hg (1003.8 mb)
Winds:from the SSW (210 degrees) at 17 MPH (15 knots; 7.7 m/s) gusting to 26 MPH (23 knots; 11.8 m/s)
Visibility:10 or more sm (16+ km)
Ceiling:4100 feet AGL
Clouds: few clouds at 2100 feet AGL, broken clouds at 4100 feet AGL, overcast cloud deck at 5500 feet AGL
Weather:-RA (light rain)

TAF for:PADU (Dutch Harbor/Madsen, AK, US) issued at 2320 UTC 22 Nov 2017
Text:PADU 222320Z 2300/2324 29028G38KT P6SM VCSH SCT025 BKN040
Forecast period:0000 to 0800 UTC 23 November 2017
Forecast type:FROM: standard forecast or significant change
Winds:from the WNW (290 degrees) at 32 MPH (28 knots; 14.4 m/s) gusting to 44 MPH (38 knots; 19.5 m/s)
Visibility:6 or more sm (10+ km)
Ceiling:4000 feet AGL
Clouds: scattered clouds at 2500 feet AGL, broken clouds at 4000 feet AGL
Weather:VCSH (showers in vicinity)
Text:FM230800 30040G55KT 5SM -SHRASN BR BKN025 OVC035
Forecast period:0800 UTC 23 November 2017 to 0000 UTC 24 November 2017
Forecast type:FROM: standard forecast or significant change
Winds:from the WNW (300 degrees) at 46 MPH (40 knots; 20.6 m/s) gusting to 63 MPH (55 knots; 28.3 m/s)
Visibility: 5 sm ( 8 km)
Ceiling:2500 feet AGL
Clouds: broken clouds at 2500 feet AGL, overcast cloud deck at 3500 feet AGL
Weather:-SHRA -SHSN BR (light rain showers, light snow showers, mist)